Time;durP1;ratioP1;P1;durP2;ratioP2;P2;SDS_P1;SDS_P2;PMS_P1;PMS_P2;Temp;Humidity;BMP_temperature;BMP_pressure;BME280_temperature;BME280_humidity;BME280_pressure;Samples;Min_cycle;Max_cycle;Signal;HPM_P1;HPM_P2
2022/01/04 00:01:21;;;;;;;28.08;3.75;;;7.50;99.90;;;;;;4953226;28;20051;-67
2022/01/04 00:03:47;;;;;;;27.98;3.58;;;7.60;99.90;;;;;;4955864;28;20410;-67
2022/01/04 00:06:13;;;;;;;29.30;3.70;;;7.60;99.90;;;;;;4949155;28;20493;-67
2022/01/04 00:08:39;;;;;;;21.70;3.70;;;7.60;99.90;;;;;;4942189;28;20054;-67
2022/01/04 00:11:08;;;;;;;20.48;3.13;;;7.60;99.90;;;;;;4954868;28;20580;-67
2022/01/04 00:13:34;;;;;;;41.33;4.32;;;7.70;99.90;;;;;;4952755;28;20051;-67
2022/01/04 00:16:03;;;;;;;25.27;3.67;;;7.70;99.90;;;;;;4950797;28;20117;-67
2022/01/04 00:18:28;;;;;;;20.13;3.47;;;7.70;99.90;;;;;;4943269;28;20046;-67
2022/01/04 00:20:54;;;;;;;27.75;4.03;;;7.70;99.90;;;;;;4967969;28;20043;-67
2022/01/04 00:23:21;;;;;;;27.10;3.42;;;7.80;99.90;;;;;;4968810;28;20047;-67
2022/01/04 00:25:47;;;;;;;24.00;4.70;;;7.80;99.90;;;;;;4950285;28;20055;-67
2022/01/04 00:28:13;;;;;;;34.00;5.70;;;7.80;99.90;;;;;;4961934;28;20038;-67
2022/01/04 00:30:40;;;;;;;29.38;4.25;;;7.80;99.90;;;;;;4968000;28;20055;-66
2022/01/04 00:33:08;;;;;;;42.15;5.20;;;7.80;99.90;;;;;;4953183;28;20047;-67
2022/01/04 00:35:35;;;;;;;36.60;4.05;;;7.90;99.90;;;;;;4969838;28;20055;-67
2022/01/04 00:38:01;;;;;;;29.83;3.83;;;7.90;99.90;;;;;;4943034;29;20125;-67
2022/01/04 00:40:26;;;;;;;25.88;4.68;;;7.90;99.90;;;;;;4965344;28;20051;-67
2022/01/04 00:42:58;;;;;;;37.83;5.22;;;7.90;99.90;;;;;;4946734;29;20054;-67
2022/01/04 00:45:24;;;;;;;27.20;3.63;;;7.90;99.90;;;;;;4949144;29;20437;-67
2022/01/04 00:50:20;;;;;;;35.97;4.95;;;7.90;99.90;;;;;;4941564;29;20044;-67
2022/01/04 00:52:46;;;;;;;40.47;4.68;;;8.00;99.90;;;;;;4946043;28;20386;-67
2022/01/04 00:55:12;;;;;;;23.88;4.65;;;8.00;99.90;;;;;;4938332;29;20047;-67
2022/01/04 00:57:38;;;;;;;26.17;3.67;;;8.00;99.90;;;;;;4948921;28;20039;-67
2022/01/04 01:00:08;;;;;;;30.10;4.82;;;7.90;99.90;;;;;;4943098;29;20051;-67
2022/01/04 01:02:34;;;;;;;35.20;4.57;;;7.90;99.90;;;;;;4947597;29;20141;-68
2022/01/04 01:04:59;;;;;;;34.40;5.30;;;7.90;99.90;;;;;;4931684;29;20082;-67
2022/01/04 01:07:25;;;;;;;45.13;4.88;;;7.90;99.90;;;;;;4948629;29;20137;-67
2022/01/04 01:12:28;;;;;;;33.60;4.90;;;7.90;99.90;;;;;;4930000;29;20456;-67
2022/01/04 01:14:54;;;;;;;35.83;4.28;;;7.90;99.90;;;;;;4949732;29;20055;-67
2022/01/04 01:17:20;;;;;;;32.47;4.20;;;7.90;99.90;;;;;;4947966;29;20067;-67
2022/01/04 01:19:46;;;;;;;29.48;4.00;;;8.00;99.90;;;;;;4949172;29;20292;-67
2022/01/04 01:22:12;;;;;;;35.25;4.40;;;8.00;99.90;;;;;;4930878;29;20055;-67
2022/01/04 01:24:37;;;;;;;35.42;5.07;;;8.00;99.90;;;;;;4930579;29;20062;-67
2022/01/04 01:27:03;;;;;;;45.53;5.07;;;8.00;99.90;;;;;;4948867;29;20047;-67
2022/01/04 01:29:29;;;;;;;40.05;4.97;;;8.00;99.90;;;;;;4947322;29;20613;-67
2022/01/04 01:31:55;;;;;;;26.45;3.60;;;8.00;99.90;;;;;;4931485;29;20113;-67
2022/01/04 01:34:21;;;;;;;30.23;4.45;;;8.00;99.90;;;;;;4929730;29;20103;-67
2022/01/04 01:36:46;;;;;;;29.98;4.03;;;8.00;99.90;;;;;;4948948;29;20043;-67
2022/01/04 01:39:12;;;;;;;30.60;4.75;;;8.00;99.90;;;;;;4930371;29;20059;-67
2022/01/04 01:41:39;;;;;;;32.10;4.38;;;7.90;99.90;;;;;;4931004;29;20047;-67
2022/01/04 01:44:05;;;;;;;38.90;4.07;;;8.00;99.90;;;;;;4931762;29;20417;-67
2022/01/04 01:46:30;;;;;;;32.05;4.20;;;8.00;99.90;;;;;;4929175;29;20062;-67
2022/01/04 01:48:56;;;;;;;43.05;5.15;;;8.00;99.90;;;;;;4948758;29;20051;-67
2022/01/04 01:51:26;;;;;;;35.53;4.38;;;8.00;99.90;;;;;;4947539;29;20039;-67
2022/01/04 01:53:52;;;;;;;30.95;4.85;;;8.00;99.90;;;;;;4931514;29;20561;-67
2022/01/04 01:56:18;;;;;;;32.38;4.53;;;8.00;99.90;;;;;;4929543;29;20079;-67
2022/01/04 01:58:44;;;;;;;36.05;4.35;;;8.00;99.90;;;;;;4947275;28;20126;-67
2022/01/04 02:01:11;;;;;;;25.80;4.03;;;8.00;99.90;;;;;;4947219;29;20059;-67
2022/01/04 02:03:38;;;;;;;34.33;3.85;;;8.00;99.90;;;;;;4929892;29;20645;-67
2022/01/04 02:06:04;;;;;;;28.02;4.07;;;8.00;99.90;;;;;;4931031;29;20061;-67
2022/01/04 02:08:30;;;;;;;32.65;4.50;;;7.90;99.90;;;;;;4946944;29;20061;-67
2022/01/04 02:10:58;;;;;;;25.70;4.82;;;7.90;99.90;;;;;;4930581;29;20494;-67
2022/01/04 02:13:27;;;;;;;30.92;4.93;;;7.90;99.90;;;;;;4945273;29;20043;-67
2022/01/04 02:15:53;;;;;;;17.27;2.42;;;7.90;99.90;;;;;;4947874;29;20066;-67
2022/01/04 02:18:19;;;;;;;37.78;5.05;;;8.00;99.90;;;;;;4930659;29;20053;-67
2022/01/04 02:20:45;;;;;;;28.98;4.10;;;7.90;99.90;;;;;;4929763;29;20039;-68
2022/01/04 02:23:10;;;;;;;43.53;4.75;;;8.00;99.90;;;;;;4931198;29;20066;-67
2022/01/04 02:25:36;;;;;;;25.95;4.47;;;8.00;99.90;;;;;;4929224;29;20141;-67
2022/01/04 02:28:03;;;;;;;33.92;3.70;;;8.00;99.90;;;;;;4948119;29;20133;-67
2022/01/04 02:30:28;;;;;;;40.42;5.10;;;8.00;99.90;;;;;;4945016;29;20413;-67
2022/01/04 02:32:54;;;;;;;23.88;3.92;;;8.00;99.90;;;;;;4947892;29;20039;-68
2022/01/04 02:35:23;;;;;;;32.67;4.28;;;8.00;99.90;;;;;;4929931;29;20055;-67
2022/01/04 02:37:51;;;;;;;35.22;5.82;;;8.00;99.90;;;;;;4913263;29;20520;-67
2022/01/04 02:40:17;;;;;;;33.90;4.43;;;8.10;99.90;;;;;;4947909;29;20138;-67
2022/01/04 02:42:43;;;;;;;37.25;5.18;;;8.00;99.90;;;;;;4946213;29;20186;-67
2022/01/04 02:45:10;;;;;;;30.15;4.30;;;8.10;99.90;;;;;;4946796;29;20190;-67
2022/01/04 02:47:36;;;;;;;22.20;4.15;;;8.10;99.90;;;;;;4946352;29;20043;-67
2022/01/04 02:50:04;;;;;;;33.88;4.82;;;8.10;99.90;;;;;;4947183;29;20050;-67
2022/01/04 02:52:29;;;;;;;30.38;4.47;;;8.10;99.90;;;;;;4929477;29;20480;-67
2022/01/04 02:54:55;;;;;;;26.60;4.20;;;8.10;99.90;;;;;;4929902;29;20119;-67
2022/01/04 02:57:22;;;;;;;26.90;4.10;;;8.10;99.90;;;;;;4947601;29;20078;-67
2022/01/04 02:59:47;;;;;;;37.95;5.47;;;8.10;99.90;;;;;;4945285;29;20082;-67
2022/01/04 03:02:13;;;;;;;36.75;6.68;;;8.10;99.90;;;;;;4930996;29;20062;-67
2022/01/04 03:04:39;;;;;;;32.45;4.40;;;8.10;99.90;;;;;;4928740;29;20039;-67
2022/01/04 03:07:05;;;;;;;26.80;4.65;;;8.10;99.90;;;;;;4947431;29;20043;-67
2022/01/04 03:09:30;;;;;;;38.15;5.10;;;8.10;99.90;;;;;;4929169;29;20062;-67
2022/01/04 03:11:56;;;;;;;36.72;4.65;;;8.10;99.90;;;;;;4947017;29;20062;-67
2022/01/04 03:14:22;;;;;;;35.80;4.75;;;8.20;99.90;;;;;;4946746;29;20122;-67
2022/01/04 03:16:48;;;;;;;30.77;4.85;;;8.20;99.90;;;;;;4947006;28;20042;-67
2022/01/04 03:19:14;;;;;;;39.45;4.75;;;8.10;99.90;;;;;;4952120;29;20066;-67
2022/01/04 03:21:42;;;;;;;26.35;3.88;;;8.10;99.90;;;;;;4949449;29;20482;-67
2022/01/04 03:24:10;;;;;;;38.58;5.70;;;8.10;99.90;;;;;;4934050;29;20453;-67
2022/01/04 03:26:37;;;;;;;23.33;3.55;;;8.10;99.90;;;;;;4948241;28;20043;-67
2022/01/04 03:29:05;;;;;;;18.40;2.97;;;8.10;99.90;;;;;;4934033;29;20079;-67
2022/01/04 03:31:31;;;;;;;31.15;4.88;;;8.10;99.90;;;;;;4950211;29;20035;-67
2022/01/04 03:33:57;;;;;;;24.67;3.85;;;8.10;99.90;;;;;;4932608;29;20505;-67
2022/01/04 03:36:24;;;;;;;26.50;4.68;;;8.10;99.90;;;;;;4951012;29;20039;-67
2022/01/04 03:38:54;;;;;;;25.77;3.50;;;8.00;99.90;;;;;;4945719;29;20169;-67
2022/01/04 03:41:21;;;;;;;;;;;8.00;99.90;;;;;;4947610;28;20615;-67
2022/01/04 03:43:47;;;;;;;32.38;4.30;;;8.00;99.90;;;;;;4948446;28;20308;-67
2022/01/04 03:46:13;;;;;;;27.10;4.55;;;8.00;99.90;;;;;;4948250;29;20596;-67
2022/01/04 03:48:40;;;;;;;29.10;4.32;;;8.00;99.90;;;;;;4948549;29;20074;-67
2022/01/04 03:51:07;;;;;;;32.03;4.93;;;8.00;99.90;;;;;;4947998;29;20051;-67
2022/01/04 03:53:33;;;;;;;32.22;5.07;;;8.00;99.90;;;;;;4945222;29;20118;-67
2022/01/04 03:55:58;;;;;;;32.95;5.32;;;8.00;99.90;;;;;;4935728;29;20174;-67
2022/01/04 03:58:25;;;;;;;40.20;5.45;;;8.00;99.90;;;;;;4950526;29;20495;-67
2022/01/04 04:00:50;;;;;;;30.20;4.72;;;8.00;99.90;;;;;;4947045;28;20094;-67
2022/01/04 04:03:17;;;;;;;27.83;5.35;;;8.00;99.90;;;;;;4944615;29;20039;-67
2022/01/04 04:05:43;;;;;;;35.75;5.65;;;8.00;99.90;;;;;;4949348;29;20039;-67
2022/01/04 04:08:09;;;;;;;35.10;5.88;;;8.00;99.90;;;;;;4950424;29;20446;-67
2022/01/04 04:10:35;;;;;;;40.97;5.03;;;8.00;99.90;;;;;;4932625;29;20119;-67
2022/01/04 04:13:00;;;;;;;24.80;4.90;;;8.00;99.90;;;;;;4931951;29;20043;-67
2022/01/04 04:15:26;;;;;;;27.17;4.50;;;8.00;99.90;;;;;;4949062;28;20051;-67
2022/01/04 04:17:52;;;;;;;34.15;5.45;;;8.00;99.90;;;;;;4946149;28;20118;-67
2022/01/04 04:20:18;;;;;;;34.92;5.28;;;8.00;99.90;;;;;;4950969;29;20093;-67
2022/01/04 04:22:44;;;;;;;33.90;5.10;;;7.90;99.90;;;;;;4947354;29;20083;-67
2022/01/04 04:25:09;;;;;;;28.27;5.45;;;7.90;99.90;;;;;;4932277;29;20410;-66
2022/01/04 04:27:35;;;;;;;36.92;5.15;;;7.90;99.90;;;;;;4916463;28;20106;-67
2022/01/04 04:30:01;;;;;;;38.67;6.85;;;7.90;99.90;;;;;;4932240;29;20527;-67
2022/01/04 04:32:27;;;;;;;34.28;5.90;;;7.90;99.90;;;;;;4950495;29;20136;-67
2022/01/04 04:34:53;;;;;;;35.90;6.32;;;7.90;99.90;;;;;;4947744;29;20330;-67
2022/01/04 04:37:19;;;;;;;38.58;5.90;;;7.90;99.90;;;;;;4933311;29;20404;-66
2022/01/04 04:39:44;;;;;;;31.35;5.75;;;7.90;99.90;;;;;;4930628;29;20053;-67
2022/01/04 04:42:10;;;;;;;27.50;5.70;;;7.90;99.90;;;;;;4932967;29;20169;-67
2022/01/04 04:44:36;;;;;;;37.05;5.63;;;7.80;99.90;;;;;;4948735;29;20039;-67
2022/01/04 04:47:02;;;;;;;34.55;5.65;;;7.90;99.90;;;;;;4949572;29;20046;-67
2022/01/04 04:49:27;;;;;;;29.92;6.30;;;7.90;99.90;;;;;;4932635;29;20050;-67
2022/01/04 04:51:56;;;;;;;27.52;5.53;;;7.90;99.90;;;;;;4948989;29;20043;-67
2022/01/04 04:54:23;;;;;;;30.15;5.60;;;7.90;99.90;;;;;;4948973;29;20482;-67
2022/01/04 04:56:48;;;;;;;41.95;7.50;;;7.90;99.90;;;;;;4947252;29;20058;-67
2022/01/04 04:59:14;;;;;;;32.60;6.60;;;7.90;99.90;;;;;;4916633;29;20356;-67
2022/01/04 05:01:40;;;;;;;33.17;6.45;;;7.90;99.90;;;;;;4947871;29;20051;-67
2022/01/04 05:04:06;;;;;;;41.05;6.82;;;7.90;99.90;;;;;;4932598;29;20486;-67
2022/01/04 05:06:31;;;;;;;34.17;6.53;;;7.90;99.90;;;;;;4947609;28;20051;-67
2022/01/04 05:08:58;;;;;;;36.83;6.47;;;7.90;99.90;;;;;;4948350;29;20051;-67
2022/01/04 05:11:23;;;;;;;42.33;6.95;;;7.90;99.90;;;;;;4932603;29;20051;-67
2022/01/04 05:13:49;;;;;;;39.58;7.15;;;7.90;99.90;;;;;;4946821;29;20066;-67
2022/01/04 05:16:15;;;;;;;38.75;7.47;;;7.90;99.90;;;;;;4932246;29;20102;-67
2022/01/04 05:18:40;;;;;;;38.72;6.65;;;7.90;99.90;;;;;;4946264;29;20465;-67
2022/01/04 05:21:06;;;;;;;32.95;5.90;;;7.90;99.90;;;;;;4931869;29;20043;-67
2022/01/04 05:23:32;;;;;;;38.88;6.28;;;7.90;99.90;;;;;;4947948;29;20078;-67
2022/01/04 05:25:58;;;;;;;44.78;7.50;;;7.90;99.90;;;;;;4931449;29;20059;-67
2022/01/04 05:28:24;;;;;;;41.15;5.90;;;7.90;99.90;;;;;;4949392;29;20045;-66
2022/01/04 05:30:50;;;;;;;30.83;6.43;;;7.90;99.90;;;;;;4930217;29;20533;-67
2022/01/04 05:33:16;;;;;;;34.17;6.72;;;7.90;99.90;;;;;;4932194;29;20043;-67
2022/01/04 05:35:41;;;;;;;27.52;6.25;;;7.90;99.90;;;;;;4947654;29;20061;-67
2022/01/04 05:38:07;;;;;;;31.90;5.80;;;7.90;99.90;;;;;;4948278;29;20097;-67
2022/01/04 05:40:34;;;;;;;37.03;7.10;;;7.90;99.90;;;;;;4929315;29;20055;-67
2022/01/04 05:43:00;;;;;;;38.72;8.95;;;7.90;99.90;;;;;;4948605;29;20394;-67
2022/01/04 05:45:25;;;;;;;30.70;7.18;;;7.90;99.90;;;;;;4948432;29;20066;-67
2022/01/04 05:47:51;;;;;;;36.50;7.30;;;7.90;99.90;;;;;;4948083;29;20440;-67
2022/01/04 05:50:17;;;;;;;33.45;7.40;;;7.90;99.90;;;;;;4930896;29;20039;-67
2022/01/04 05:52:42;;;;;;;43.05;7.50;;;7.90;99.90;;;;;;4947065;29;20383;-67
2022/01/04 05:55:09;;;;;;;33.22;7.40;;;7.90;99.90;;;;;;4931432;29;20051;-67
2022/01/04 05:57:35;;;;;;;37.97;7.22;;;7.90;99.90;;;;;;4945969;28;20054;-66
2022/01/04 06:00:01;;;;;;;27.50;6.18;;;7.90;99.90;;;;;;4948453;29;20516;-67
2022/01/04 06:02:27;;;;;;;39.53;7.50;;;7.90;99.90;;;;;;4929993;29;20548;-66
2022/01/04 06:04:53;;;;;;;27.25;6.90;;;7.90;99.90;;;;;;4948588;29;20090;-67
2022/01/04 06:07:18;;;;;;;25.58;6.60;;;7.90;99.90;;;;;;4946938;29;20047;-67
2022/01/04 06:09:47;;;;;;;32.53;7.68;;;7.90;99.90;;;;;;4946886;29;20055;-67
2022/01/04 06:14:58;;;;;;;27.92;6.55;;;7.90;99.90;;;;;;4929146;29;20101;-67
2022/01/04 06:17:36;;;;;;;37.35;7.20;;;8.00;99.90;;;;;;4915235;29;20043;-67
2022/01/04 06:20:05;;;;;;;34.22;6.85;;;7.90;99.90;;;;;;4930234;29;20066;-67
2022/01/04 06:22:31;;;;;;;33.58;7.05;;;7.90;99.90;;;;;;4947300;29;20093;-67
2022/01/04 06:24:57;;;;;;;39.17;7.65;;;8.00;99.90;;;;;;4948567;29;20074;-67
2022/01/04 06:27:23;;;;;;;36.30;7.53;;;8.00;99.90;;;;;;4928753;29;20050;-67
2022/01/04 06:29:49;;;;;;;27.35;7.25;;;8.00;99.90;;;;;;4948774;29;20050;-67
2022/01/04 06:32:15;;;;;;;35.55;6.85;;;8.00;99.90;;;;;;4945295;29;20065;-67
2022/01/04 06:34:42;;;;;;;30.90;8.10;;;8.00;99.90;;;;;;4948679;29;20039;-67
2022/01/04 06:37:09;;;;;;;32.90;7.50;;;8.00;99.90;;;;;;4929467;29;20083;-67
2022/01/04 06:39:35;;;;;;;30.92;7.85;;;8.00;99.90;;;;;;4927938;29;20055;-67
2022/01/04 06:42:01;;;;;;;30.73;8.60;;;8.00;99.90;;;;;;4946444;29;20505;-67
2022/01/04 06:44:27;;;;;;;30.10;6.75;;;8.00;99.90;;;;;;4912806;29;20054;-67
2022/01/04 06:46:53;;;;;;;31.67;7.50;;;8.00;99.90;;;;;;4947364;28;20058;-67
2022/01/04 06:49:19;;;;;;;30.52;8.57;;;8.00;99.90;;;;;;4912306;29;20043;-67
2022/01/04 06:51:46;;;;;;;30.73;7.97;;;7.90;99.90;;;;;;4948405;28;20099;-67
2022/01/04 06:54:14;;;;;;;47.50;9.35;;;7.90;99.90;;;;;;4945496;29;20043;-67
2022/01/04 06:56:41;;;;;;;34.13;7.68;;;8.00;99.90;;;;;;4935750;29;20055;-67
2022/01/04 06:59:08;;;;;;;26.50;7.55;;;7.90;99.90;;;;;;4947486;29;20050;-67
2022/01/04 07:01:35;;;;;;;34.83;7.53;;;8.00;99.90;;;;;;4929116;29;20061;-67
2022/01/04 07:04:01;;;;;;;35.30;8.25;;;8.00;99.90;;;;;;4948558;29;20655;-67
2022/01/04 07:06:27;;;;;;;29.00;6.45;;;8.00;99.90;;;;;;4928644;29;20082;-67
2022/01/04 07:08:53;;;;;;;40.10;9.10;;;8.00;99.90;;;;;;4946929;29;20573;-67
2022/01/04 07:11:19;;;;;;;23.63;6.28;;;8.00;99.90;;;;;;4945487;29;20461;-67
2022/01/04 07:13:45;;;;;;;34.25;8.93;;;8.00;99.90;;;;;;4947398;29;20031;-67
2022/01/04 07:16:11;;;;;;;39.20;8.07;;;8.00;99.90;;;;;;4945053;29;20047;-67
2022/01/04 07:18:37;;;;;;;41.45;7.13;;;8.00;99.90;;;;;;4946335;29;20381;-67
2022/01/04 07:21:03;;;;;;;31.20;6.75;;;8.00;99.90;;;;;;4930240;29;20051;-67
2022/01/04 07:23:29;;;;;;;32.33;7.63;;;8.00;99.90;;;;;;4938538;29;20066;-67
2022/01/04 07:25:55;;;;;;;40.60;8.48;;;7.90;99.90;;;;;;4947320;29;20094;-67
2022/01/04 07:28:22;;;;;;;30.30;7.97;;;8.00;99.90;;;;;;4957672;28;20079;-67
2022/01/04 07:30:48;;;;;;;38.58;7.47;;;8.00;99.90;;;;;;4947362;29;20043;-67
2022/01/04 07:33:16;;;;;;;29.30;7.50;;;8.00;99.90;;;;;;4939121;29;20079;-67
2022/01/04 07:35:43;;;;;;;41.45;8.73;;;8.00;99.90;;;;;;4946215;29;20465;-67
2022/01/04 07:38:08;;;;;;;39.25;7.45;;;8.00;99.90;;;;;;4942282;28;20082;-67
2022/01/04 07:40:34;;;;;;;37.83;8.35;;;7.90;99.90;;;;;;4945740;29;20435;-67
2022/01/04 07:43:00;;;;;;;32.17;7.25;;;8.00;99.90;;;;;;4930040;29;20118;-67
2022/01/04 07:45:31;;;;;;;35.30;8.00;;;7.90;99.90;;;;;;4928084;29;20039;-67
2022/01/04 07:47:57;;;;;;;17.95;5.35;;;7.90;99.90;;;;;;4929628;29;20561;-67
2022/01/04 07:50:23;;;;;;;7.90;2.55;;;7.90;99.90;;;;;;4928264;29;20047;-67
2022/01/04 07:52:50;;;;;;;22.90;6.40;;;7.70;96.70;;;;;;4938088;29;20057;-68
2022/01/04 07:55:16;;;;;;;8.98;2.08;;;7.60;96.40;;;;;;4945906;28;20036;-67
2022/01/04 07:57:44;;;;;;;4.47;1.17;;;7.40;96.40;;;;;;4957220;28;20442;-67
2022/01/04 08:00:13;;;;;;;7.38;1.42;;;7.20;97.10;;;;;;4946254;28;20458;-67
2022/01/04 08:02:40;;;;;;;10.77;1.92;;;7.20;97.30;;;;;;4936878;29;20090;-67
2022/01/04 08:05:07;;;;;;;4.28;1.20;;;7.20;98.50;;;;;;4933743;29;20126;-67
2022/01/04 08:07:33;;;;;;;18.42;0.98;;;7.20;98.70;;;;;;4943389;29;20054;-67
2022/01/04 08:09:59;;;;;;;9.32;1.05;;;7.20;98.20;;;;;;4933489;29;20915;-67
2022/01/04 08:12:26;;;;;;;6.95;1.33;;;7.20;98.70;;;;;;4932139;29;20522;-67
2022/01/04 08:14:52;;;;;;;4.55;0.93;;;7.20;98.70;;;;;;4947468;29;20062;-67
2022/01/04 08:17:17;;;;;;;8.40;1.17;;;7.20;98.60;;;;;;4934344;29;20063;-67
2022/01/04 08:19:43;;;;;;;8.15;1.63;;;7.20;98.80;;;;;;4947514;29;20396;-67
2022/01/04 08:22:09;;;;;;;4.75;0.95;;;7.20;98.80;;;;;;4933521;29;20083;-67
2022/01/04 08:24:35;;;;;;;7.97;1.52;;;7.20;99.10;;;;;;4930961;29;20570;-67
2022/01/04 08:27:01;;;;;;;6.68;1.50;;;7.20;99.50;;;;;;4929861;29;20126;-67
2022/01/04 08:29:27;;;;;;;7.32;1.35;;;7.20;99.90;;;;;;4931872;29;20042;-67
2022/01/04 08:31:53;;;;;;;8.85;1.63;;;7.20;99.90;;;;;;4932349;29;20390;-67
2022/01/04 08:34:19;;;;;;;9.00;2.00;;;7.10;99.90;;;;;;4934354;29;20058;-67
2022/01/04 08:36:45;;;;;;;14.00;2.67;;;7.10;99.90;;;;;;4928866;29;20102;-67
2022/01/04 08:39:14;;;;;;;16.40;2.85;;;7.20;99.90;;;;;;4930151;29;20051;-67
2022/01/04 08:41:41;;;;;;;23.10;3.67;;;7.20;99.90;;;;;;4945849;29;20055;-67
2022/01/04 08:44:08;;;;;;;17.90;3.03;;;7.30;99.90;;;;;;4946848;29;20784;-67
2022/01/04 08:46:35;;;;;;;22.58;4.57;;;7.30;99.90;;;;;;4929156;29;20302;-67
2022/01/04 08:49:03;;;;;;;32.20;5.10;;;7.40;99.90;;;;;;4930298;29;20081;-67
2022/01/04 08:51:30;;;;;;;20.52;3.38;;;7.40;99.90;;;;;;4943784;28;20039;-67
2022/01/04 08:53:56;;;;;;;25.40;3.92;;;7.50;99.90;;;;;;4948807;29;20394;-67
2022/01/04 08:56:21;;;;;;;28.60;4.38;;;7.60;99.90;;;;;;4949123;29;20043;-67
2022/01/04 08:58:47;;;;;;;24.15;3.97;;;7.60;99.90;;;;;;4927570;29;20048;-67
2022/01/04 09:01:13;;;;;;;20.05;3.35;;;7.60;99.90;;;;;;4929077;29;20493;-67
2022/01/04 09:03:39;;;;;;;26.33;4.82;;;7.70;99.90;;;;;;4938283;29;20106;-67
2022/01/04 09:06:06;;;;;;;29.55;4.75;;;7.70;99.90;;;;;;4944182;29;20086;-67
2022/01/04 09:08:32;;;;;;;32.17;6.07;;;7.70;99.90;;;;;;4927329;29;20059;-67
2022/01/04 09:10:58;;;;;;;37.05;6.05;;;7.70;99.90;;;;;;4944829;28;20506;-67
2022/01/04 09:13:25;;;;;;;63.28;14.43;;;7.70;99.90;;;;;;4918624;29;20043;-67
2022/01/04 09:18:46;;;;;;;97.05;34.13;;;7.60;99.90;;;;;;4943697;28;20050;-68
2022/01/04 09:21:32;;;;;;;54.53;14.38;;;7.50;99.90;;;;;;4929284;29;20118;-68
2022/01/04 09:23:59;;;;;;;17.58;4.50;;;7.50;99.90;;;;;;4929466;29;20059;-67
2022/01/04 09:26:26;;;;;;;12.27;2.97;;;7.40;99.90;;;;;;4916133;29;20047;-68
2022/01/04 09:28:54;;;;;;;18.05;2.38;;;7.30;99.90;;;;;;4945583;29;20048;-67
2022/01/04 09:31:22;;;;;;;13.50;1.73;;;7.20;99.90;;;;;;4948580;28;20531;-68
2022/01/04 09:33:49;;;;;;;9.75;1.70;;;7.10;99.90;;;;;;4929700;29;20043;-68
2022/01/04 09:36:16;;;;;;;16.33;1.92;;;7.10;99.90;;;;;;4948612;29;20502;-67
2022/01/04 09:38:42;;;;;;;12.25;1.52;;;7.00;99.90;;;;;;4930609;29;20051;-67
2022/01/04 09:41:08;;;;;;;9.65;1.30;;;7.00;99.90;;;;;;4930422;29;20043;-68
2022/01/04 09:43:34;;;;;;;10.23;1.20;;;6.90;99.90;;;;;;4949086;29;20050;-68
2022/01/04 09:46:00;;;;;;;8.88;0.95;;;6.80;99.90;;;;;;4946503;29;20735;-68
2022/01/04 09:48:27;;;;;;;13.02;1.27;;;6.80;99.90;;;;;;4942035;29;20170;-68
2022/01/04 09:50:59;;;;;;;11.70;1.13;;;6.70;99.90;;;;;;4944156;29;20490;-68
2022/01/04 09:53:26;;;;;;;4.68;0.80;;;6.60;99.90;;;;;;4947901;29;20055;-67
2022/01/04 09:55:53;;;;;;;5.57;1.10;;;6.40;99.90;;;;;;4938009;29;20517;-67
2022/01/04 09:58:22;;;;;;;6.22;0.85;;;6.30;99.90;;;;;;4954043;28;20767;-68
2022/01/04 10:00:48;;;;;;;6.18;0.88;;;6.20;99.90;;;;;;4931101;29;20829;-67
2022/01/04 10:03:17;;;;;;;5.00;0.75;;;6.20;99.90;;;;;;4928799;29;20504;-67
2022/01/04 10:05:44;;;;;;;8.20;0.85;;;6.20;99.90;;;;;;4947745;28;20047;-68
2022/01/04 10:08:12;;;;;;;7.55;1.27;;;6.20;99.90;;;;;;4924140;29;20131;-67
2022/01/04 10:10:38;;;;;;;8.75;0.75;;;6.30;99.90;;;;;;4942428;29;20594;-68
2022/01/04 10:13:09;;;;;;;6.93;1.23;;;6.20;99.90;;;;;;4961550;28;20457;-67
2022/01/04 10:15:44;;;;;;;12.15;1.08;;;6.30;99.90;;;;;;4927881;29;20090;-68
2022/01/04 10:18:13;;;;;;;9.50;1.42;;;6.30;99.90;;;;;;4944899;28;20113;-67
2022/01/04 10:20:40;;;;;;;8.75;1.05;;;6.20;99.90;;;;;;4957570;28;20043;-68
2022/01/04 10:23:14;;;;;;;12.10;0.90;;;6.10;99.90;;;;;;4927615;29;20059;-68
2022/01/04 10:25:40;;;;;;;10.05;0.57;;;6.00;99.90;;;;;;4942620;28;20533;-67
2022/01/04 10:28:07;;;;;;;8.98;1.42;;;5.90;99.90;;;;;;4946660;29;20066;-68
2022/01/04 10:30:35;;;;;;;8.75;0.73;;;5.90;99.90;;;;;;4947185;29;20494;-67
2022/01/04 10:33:14;;;;;;;9.13;0.82;;;5.90;99.90;;;;;;4945747;29;20134;-67
2022/01/04 10:35:44;;;;;;;3.58;0.70;;;5.80;99.90;;;;;;4947522;29;20042;-67
2022/01/04 10:38:26;;;;;;;2.33;0.40;;;5.70;99.90;;;;;;4940690;28;20035;-67
2022/01/04 10:41:20;;;;;;;4.32;0.70;;;5.60;99.90;;;;;;4946997;28;20051;-67
2022/01/04 10:44:01;;;;;;;4.28;0.47;;;5.50;99.90;;;;;;4964324;28;20088;-68
2022/01/04 10:46:35;;;;;;;;;;;5.40;99.90;;;;;;4958228;28;20735;-67
2022/01/04 10:49:20;;;;;;;3.20;0.60;;;5.30;99.90;;;;;;4971174;28;19931;-67
2022/01/04 10:52:04;;;;;;;7.32;1.10;;;5.30;99.90;;;;;;4927747;29;20441;-67
2022/01/04 10:54:30;;;;;;;8.10;1.50;;;5.20;99.90;;;;;;4947935;28;20051;-67
2022/01/04 10:57:04;;;;;;;8.73;0.80;;;5.30;99.90;;;;;;4929855;29;20061;-67
2022/01/04 10:59:30;;;;;;;4.28;0.75;;;5.30;99.90;;;;;;4927598;29;20058;-67
2022/01/04 11:01:56;;;;;;;7.07;0.93;;;5.30;99.90;;;;;;4947578;28;20051;-67
2022/01/04 11:04:23;;;;;;;5.78;0.90;;;5.30;99.90;;;;;;4944283;28;20063;-67
2022/01/04 11:06:56;;;;;;;3.90;0.65;;;5.40;99.90;;;;;;4946959;28;20122;-67
2022/01/04 11:09:22;;;;;;;11.43;0.98;;;5.40;99.90;;;;;;4947372;28;20465;-67
2022/01/04 11:11:48;;;;;;;3.83;0.60;;;5.20;99.90;;;;;;4927284;29;20074;-67
2022/01/04 11:14:14;;;;;;;4.13;0.47;;;5.10;99.90;;;;;;4930582;28;20157;-67
2022/01/04 11:16:41;;;;;;;5.03;0.50;;;5.10;99.90;;;;;;4945270;28;20039;-67
2022/01/04 11:19:07;;;;;;;7.00;0.70;;;5.10;99.90;;;;;;4943638;28;20044;-66
2022/01/04 11:21:52;;;;;;;1.52;0.50;;;5.20;99.90;;;;;;4949061;28;20494;-67
2022/01/04 11:24:19;;;;;;;2.67;0.30;;;5.10;99.90;;;;;;4949095;28;20494;-67
2022/01/04 11:26:48;;;;;;;2.90;0.35;;;5.20;99.90;;;;;;4947171;28;20047;-67
2022/01/04 11:29:16;;;;;;;5.97;1.38;;;5.30;99.80;;;;;;4923701;29;20043;-68
2022/01/04 11:31:48;;;;;;;11.40;1.23;;;5.40;99.60;;;;;;4944353;28;20039;-67
2022/01/04 11:34:50;;;;;;;9.20;0.95;;;5.40;99.90;;;;;;4943833;29;20050;-67
2022/01/04 11:37:19;;;;;;;8.00;1.13;;;5.30;99.30;;;;;;4944564;28;20086;-67
2022/01/04 11:39:45;;;;;;;8.55;1.30;;;5.30;99.00;;;;;;4950078;28;20058;-67
2022/01/04 11:42:34;;;;;;;10.38;1.05;;;5.30;99.30;;;;;;4946182;29;20063;-67
2022/01/04 11:45:01;;;;;;;7.97;1.10;;;5.30;98.60;;;;;;4951347;29;20062;-67
2022/01/04 11:47:29;;;;;;;12.57;1.38;;;5.30;98.20;;;;;;4930723;29;20101;-67
2022/01/04 11:50:23;;;;;;;9.55;1.30;;;5.40;98.20;;;;;;4933121;29;20055;-67
2022/01/04 11:52:56;;;;;;;6.68;1.15;;;5.40;98.10;;;;;;4944632;29;20476;-67
2022/01/04 11:55:27;;;;;;;10.75;1.48;;;5.50;97.00;;;;;;4948431;29;20367;-67
2022/01/04 11:57:54;;;;;;;;;;;5.60;96.40;;;;;;4917580;29;20055;-67
2022/01/04 12:00:28;;;;;;;7.93;1.85;;;5.70;97.00;;;;;;4947615;28;19922;-67
2022/01/04 12:03:14;;;;;;;9.70;1.13;;;5.80;95.70;;;;;;4948484;29;20058;-67
2022/01/04 12:05:55;;;;;;;8.23;1.33;;;5.90;95.00;;;;;;4948443;29;20062;-67
2022/01/04 12:08:25;;;;;;;3.40;0.80;;;6.00;95.20;;;;;;4948434;29;20091;-67
2022/01/04 12:10:53;;;;;;;4.10;0.93;;;6.00;93.70;;;;;;4947562;29;20114;-67
2022/01/04 12:13:23;;;;;;;6.30;0.98;;;6.00;92.70;;;;;;4948526;29;20524;-67
2022/01/04 12:15:57;;;;;;;;;;;6.00;93.00;;;;;;4950613;29;20058;-67
2022/01/04 12:18:33;;;;;;;4.15;0.85;;;5.90;93.00;;;;;;4950218;29;19929;-67
2022/01/04 12:21:15;;;;;;;8.20;1.17;;;5.90;92.70;;;;;;4948236;29;20054;-67
2022/01/04 12:23:48;;;;;;;6.70;1.02;;;5.90;92.40;;;;;;4932653;29;20047;-67
2022/01/04 12:26:14;;;;;;;4.32;0.75;;;5.90;92.40;;;;;;4947747;28;20532;-67
2022/01/04 12:29:06;;;;;;;5.80;0.88;;;5.90;90.00;;;;;;4932669;29;20183;-67
2022/01/04 12:31:46;;;;;;;8.57;1.20;;;6.00;91.40;;;;;;4964325;28;20346;-67
2022/01/04 12:34:31;;;;;;;12.40;1.55;;;6.00;92.10;;;;;;4947977;29;20494;-67
2022/01/04 12:36:58;;;;;;;14.25;3.33;;;6.00;92.40;;;;;;4920787;29;20059;-67
2022/01/04 12:39:37;;;;;;;12.80;2.28;;;5.90;91.60;;;;;;4933193;29;20043;-67
2022/01/04 12:42:04;;;;;;;13.90;6.32;;;5.90;91.40;;;;;;4944650;28;20055;-67
2022/01/04 12:44:31;;;;;;;9.15;1.85;;;5.90;91.90;;;;;;4928077;29;20047;-67
2022/01/04 12:46:58;;;;;;;13.65;3.15;;;6.00;92.00;;;;;;4940388;29;20063;-67
2022/01/04 12:49:26;;;;;;;22.08;6.00;;;6.00;93.00;;;;;;4949549;28;20358;-67
2022/01/04 12:52:03;;;;;;;19.45;5.03;;;6.10;93.20;;;;;;4945844;28;20118;-67
2022/01/04 12:54:32;;;;;;;31.33;7.60;;;6.10;92.90;;;;;;4949562;28;20122;-67
2022/01/04 12:57:05;;;;;;;24.20;6.60;;;6.10;93.00;;;;;;4947313;29;20908;-67
2022/01/04 12:59:42;;;;;;;18.58;4.80;;;6.20;93.00;;;;;;4948314;29;20053;-67
2022/01/04 13:02:12;;;;;;;15.27;4.22;;;6.20;93.20;;;;;;4949256;28;20058;-67
2022/01/04 13:04:41;;;;;;;14.60;2.78;;;6.20;92.50;;;;;;4930125;29;20063;-67